createdAt,value
2023-03-02T00:00:13.197Z,96140.25
2023-03-02T00:01:28.835Z,96144.50
2023-03-02T00:02:45.306Z,96148.72
2023-03-02T00:03:55.315Z,96141.06
2023-03-02T00:05:18.722Z,96143.63
2023-03-02T00:06:26.793Z,96142.81
2023-03-02T00:07:38.294Z,96140.19
2023-03-02T00:09:00.744Z,96139.38
2023-03-02T00:10:17.400Z,96144.47
2023-03-02T00:11:35.327Z,96139.34
2023-03-02T00:13:06.578Z,96136.84
2023-03-02T00:14:32.044Z,96143.63
2023-03-02T00:15:41.462Z,96136.88
2023-03-02T00:16:58.205Z,96143.63
2023-03-02T00:18:05.412Z,96144.53
2023-03-02T00:19:21.304Z,96149.63
2023-03-02T00:20:28.955Z,96138.66
2023-03-02T00:21:41.056Z,96142.00
2023-03-02T00:22:52.300Z,96138.66
2023-03-02T00:24:17.332Z,96134.44
2023-03-02T00:25:26.220Z,96138.75
2023-03-02T00:28:01.573Z,96137.09
2023-03-02T00:29:21.461Z,96134.56
2023-03-02T00:30:40.649Z,96146.47
2023-03-02T00:31:57.030Z,96139.72
2023-03-02T00:33:15.939Z,96129.56
2023-03-02T00:34:28.619Z,96133.84
2023-03-02T00:35:53.404Z,96126.19
2023-03-02T00:37:14.412Z,96132.09
2023-03-02T00:38:42.905Z,96130.44
2023-03-02T00:40:05.988Z,96129.59
2023-03-02T00:41:19.088Z,96131.31
2023-03-02T00:42:34.638Z,96123.69
2023-03-02T00:43:50.569Z,96128.78
2023-03-02T00:45:07.097Z,96126.28
2023-03-02T00:46:19.978Z,96124.56
2023-03-02T00:47:35.928Z,96126.31
2023-03-02T00:50:04.762Z,96126.28
2023-03-02T00:51:14.662Z,96129.69
2023-03-02T00:52:25.767Z,96123.72
2023-03-02T00:53:41.479Z,96119.47
2023-03-02T00:54:52.102Z,96117.75
2023-03-02T00:56:04.452Z,96116.91
2023-03-02T00:57:36.851Z,96121.16
2023-03-02T00:58:55.099Z,96121.13
2023-03-02T01:00:09.155Z,96117.78
2023-03-02T01:01:18.745Z,96119.44
2023-03-02T01:02:28.741Z,96117.78
2023-03-02T01:03:44.170Z,96116.91
2023-03-02T01:05:03.932Z,96115.22
2023-03-02T01:06:24.507Z,96116.13
2023-03-02T01:07:33.201Z,96114.44
2023-03-02T01:08:50.348Z,96115.31
2023-03-02T01:10:04.859Z,96111.06
2023-03-02T01:11:31.403Z,96105.94
2023-03-02T01:12:46.170Z,96105.13
2023-03-02T01:14:12.298Z,96104.28
2023-03-02T01:15:23.919Z,96101.72
2023-03-02T01:16:36.689Z,96104.28
2023-03-02T01:17:48.265Z,96105.09
2023-03-02T01:19:08.024Z,96104.25
2023-03-02T01:20:29.477Z,96101.72
2023-03-02T01:21:39.944Z,96102.59
2023-03-02T01:22:55.709Z,96098.34
2023-03-02T01:24:11.920Z,96100.03
2023-03-02T01:25:26.270Z,96100.03
2023-03-02T01:26:40.298Z,96095.78
2023-03-02T01:29:17.919Z,96096.66
2023-03-02T01:30:32.176Z,96093.25
2023-03-02T01:31:35.998Z,96093.28
2023-03-02T01:32:48.408Z,96095.84
2023-03-02T02:54:23.532Z,96038.41
2023-03-02T02:55:27.223Z,96036.75
2023-03-02T02:56:35.055Z,96032.53
2023-03-02T02:57:37.828Z,96035.91
2023-03-02T02:58:47.080Z,96034.19
2023-03-02T02:59:53.093Z,96040.13
2023-03-02T03:00:59.365Z,96032.50
2023-03-02T03:02:02.108Z,96035.06
2023-03-02T03:03:29.358Z,96034.19
2023-03-02T03:04:36.476Z,96029.13
2023-03-02T03:05:38.615Z,96029.94
2023-03-02T03:06:53.309Z,96036.75
2023-03-02T03:08:09.990Z,96033.31
2023-03-02T03:09:15.402Z,96037.56
2023-03-02T03:10:28.976Z,96030.78
2023-03-02T03:11:37.113Z,96031.63
2023-03-02T03:12:40.608Z,96031.66
2023-03-02T03:13:47.921Z,96029.94
2023-03-02T03:14:54.340Z,96035.03
2023-03-02T03:15:57.224Z,96024.00
2023-03-02T03:17:02.353Z,96027.34
2023-03-02T03:18:05.284Z,96035.84
2023-03-02T03:19:18.980Z,96033.28
2023-03-02T03:20:25.649Z,96023.91
2023-03-02T03:21:30.932Z,96029.00
2023-03-02T03:22:35.346Z,96031.53
2023-03-02T03:23:40.649Z,96023.91
2023-03-02T03:24:48.045Z,96024.75
2023-03-02T03:25:53.043Z,96025.56
2023-03-02T03:26:58.830Z,96017.91
2023-03-02T03:28:01.178Z,96019.63
2023-03-02T03:29:06.502Z,96023.03
2023-03-02T03:30:09.991Z,96024.72
2023-03-02T03:31:15.075Z,96021.31
2023-03-02T03:32:20.309Z,96023.88
2023-03-02T03:33:25.479Z,96026.47
2023-03-02T03:34:28.867Z,96024.75
2023-03-02T03:35:34.145Z,96026.47
2023-03-02T03:36:37.799Z,96025.59
2023-03-02T03:37:44.190Z,96023.91
2023-03-02T03:38:46.706Z,96032.34
2023-03-02T03:39:52.110Z,96025.56
2023-03-02T03:40:57.207Z,96027.25
2023-03-02T03:42:02.426Z,96030.59
2023-03-02T03:43:04.876Z,96024.69
2023-03-02T03:44:10.144Z,96023.88
2023-03-02T03:45:13.088Z,96026.41
2023-03-02T03:46:18.056Z,96028.16
2023-03-02T03:47:20.505Z,96031.53
2023-03-02T03:48:26.360Z,96029.88
2023-03-02T03:49:28.666Z,96029.06
2023-03-02T03:50:33.750Z,96032.44
2023-03-02T03:51:36.196Z,96033.31
2023-03-02T03:52:44.139Z,96029.88
2023-03-02T03:53:46.977Z,96031.56
2023-03-02T03:54:52.274Z,96026.47
2023-03-02T03:55:57.786Z,96030.69
2023-03-02T03:57:02.934Z,96038.31
2023-03-02T03:58:05.350Z,96026.47
2023-03-02T03:59:14.397Z,96032.34
2023-03-02T04:00:18.437Z,96031.53
2023-03-02T04:01:23.521Z,96025.63
2023-03-02T04:02:26.703Z,96031.56
2023-03-02T04:03:31.947Z,96032.41
2023-03-02T04:04:35.820Z,96025.66
2023-03-02T04:05:41.332Z,96021.44
2023-03-02T04:06:43.615Z,96023.16
2023-03-02T04:07:49.432Z,96026.56
2023-03-02T04:08:51.880Z,96030.78
2023-03-02T04:10:04.799Z,96029.09
2023-03-02T04:11:09.929Z,96025.75
2023-03-02T04:12:15.242Z,96028.28
2023-03-02T04:13:17.841Z,96024.88
2023-03-02T04:14:24.425Z,96025.75
2023-03-02T04:15:27.172Z,96028.31
2023-03-02T04:16:33.937Z,96027.47
2023-03-02T04:17:36.700Z,96029.97
2023-03-02T04:18:43.840Z,96029.97
2023-03-02T04:19:46.486Z,96031.72
2023-03-02T04:20:51.505Z,96028.28
2023-03-02T04:21:55.792Z,96024.91
2023-03-02T04:23:02.319Z,96030.88
2023-03-02T04:24:05.153Z,96029.19
2023-03-02T04:25:11.030Z,96031.72
2023-03-02T04:26:20.136Z,96035.94
2023-03-02T04:27:25.342Z,96033.41
2023-03-02T04:28:27.585Z,96031.69
2023-03-02T04:29:34.396Z,96026.59
2023-03-02T04:30:36.733Z,96031.72
2023-03-02T04:31:43.611Z,96035.13
2023-03-02T04:32:45.720Z,96037.69
2023-03-02T04:33:50.848Z,96028.34
2023-03-02T04:34:53.297Z,96020.72
2023-03-02T04:35:58.400Z,96029.22
2023-03-02T04:37:00.947Z,96033.44
2023-03-02T04:38:06.719Z,96033.44
2023-03-02T04:39:09.722Z,96030.88
2023-03-02T04:40:16.403Z,96033.44
2023-03-02T04:41:22.899Z,96041.03
2023-03-02T04:42:28.271Z,96032.56
2023-03-02T04:43:30.723Z,96033.41
2023-03-02T04:44:35.545Z,96026.66
2023-03-02T04:45:37.915Z,96029.19
2023-03-02T04:46:44.883Z,96031.75
2023-03-02T04:47:47.188Z,96030.94
2023-03-02T04:48:52.184Z,96038.53
2023-03-02T04:49:55.118Z,96027.53
2023-03-02T04:51:00.043Z,96031.75
2023-03-02T04:52:02.707Z,96035.13
2023-03-02T04:53:07.565Z,96030.91
2023-03-02T04:54:15.734Z,96028.38
2023-03-02T04:55:23.559Z,96021.59
2023-03-02T04:56:30.036Z,96030.06
2023-03-02T04:57:35.548Z,96036.00
2023-03-02T04:58:37.662Z,96036.84
2023-03-02T04:59:43.008Z,96030.94
2023-03-02T05:00:45.461Z,96033.44
2023-03-02T05:01:51.717Z,96033.41
2023-03-02T05:02:54.119Z,96033.44
2023-03-02T05:04:00.719Z,96024.09
2023-03-02T05:05:05.391Z,96029.19
2023-03-02T05:06:11.741Z,96026.63
2023-03-02T05:07:14.112Z,96028.34
2023-03-02T05:08:19.249Z,96024.09
2023-03-02T05:09:27.560Z,96029.16
2023-03-02T05:10:34.271Z,96026.63
2023-03-02T05:11:40.249Z,96020.69
2023-03-02T05:12:58.633Z,96024.09
2023-03-02T05:14:04.413Z,96018.97
2023-03-02T05:15:11.010Z,96031.69
2023-03-02T05:16:13.421Z,96029.13
2023-03-02T05:17:19.039Z,96028.25
2023-03-02T05:18:21.418Z,96020.63
2023-03-02T05:19:27.048Z,96018.09
2023-03-02T05:20:30.897Z,96023.13
2023-03-02T05:21:36.014Z,96015.53
2023-03-02T05:22:38.644Z,96016.38
2023-03-02T05:23:43.962Z,96015.50
2023-03-02T05:24:46.170Z,96022.28
2023-03-02T05:25:51.137Z,96018.03
2023-03-02T05:26:56.398Z,96016.38
2023-03-02T05:28:01.656Z,96018.03
2023-03-02T05:29:04.058Z,96021.44
2023-03-02T05:30:11.473Z,96018.09
2023-03-02T05:31:18.702Z,96019.81
2023-03-02T05:32:24.838Z,96020.66
2023-03-02T05:33:27.539Z,96020.63
2023-03-02T05:34:32.662Z,96019.78
2023-03-02T05:35:35.309Z,96019.81
2023-03-02T05:36:43.248Z,96023.19
2023-03-02T05:37:46.423Z,96020.66
2023-03-02T05:38:51.697Z,96016.41
2023-03-02T05:39:54.203Z,96015.59
2023-03-02T05:40:59.485Z,96017.25
2023-03-02T05:42:06.043Z,96013.88
2023-03-02T05:43:12.205Z,96024.06
2023-03-02T05:44:17.736Z,96021.53
2023-03-02T05:45:23.017Z,96022.38
2023-03-02T05:46:28.111Z,96028.28
2023-03-02T05:47:30.247Z,96026.59
2023-03-02T05:48:35.583Z,96028.28
2023-03-02T05:49:37.735Z,96022.38
2023-03-02T05:50:43.118Z,96018.13
2023-03-02T05:51:45.402Z,96030.81
2023-03-02T05:52:50.408Z,96023.22
2023-03-02T05:53:52.434Z,96030.84
2023-03-02T05:54:59.395Z,96022.41
2023-03-02T05:56:01.722Z,96020.72
2023-03-02T05:57:10.041Z,96030.88
2023-03-02T05:58:18.643Z,96031.72
2023-03-02T05:59:23.817Z,96033.44
2023-03-02T06:00:26.130Z,96032.59
2023-03-02T06:01:31.477Z,96037.69
2023-03-02T06:02:33.882Z,96041.06
2023-03-02T06:03:39.505Z,96045.31
2023-03-02T06:04:43.548Z,96030.91
2023-03-02T06:05:51.100Z,96045.28
2023-03-02T06:06:53.479Z,96035.97
2023-03-02T06:07:59.556Z,96038.50
2023-03-02T06:09:01.976Z,96033.44
2023-03-02T06:10:07.899Z,96035.13
2023-03-02T06:11:10.550Z,96039.34
2023-03-02T06:12:18.313Z,96048.69
2023-03-02T06:13:20.307Z,96055.47
2023-03-02T06:14:25.496Z,96047.00
2023-03-02T06:15:30.011Z,96055.47
2023-03-02T06:16:36.755Z,96047.00
2023-03-02T06:17:40.037Z,96050.34
2023-03-02T06:18:45.186Z,96052.91
2023-03-02T06:19:47.859Z,96051.22
2023-03-02T06:20:53.162Z,96058.00
2023-03-02T06:21:58.115Z,96054.63
2023-03-02T06:23:03.036Z,96054.63
2023-03-02T06:24:08.271Z,96058.84
2023-03-02T06:25:12.324Z,96057.13
2023-03-02T06:26:17.185Z,96058.00
2023-03-02T06:27:22.381Z,96067.31
2023-03-02T06:28:28.054Z,96061.38
2023-03-02T06:29:30.111Z,96058.84
2023-03-02T06:30:35.141Z,96055.44
2023-03-02T06:31:37.313Z,96058.84
2023-03-02T06:32:45.142Z,96061.38
2023-03-02T06:33:47.408Z,96052.03
2023-03-02T06:34:52.169Z,96053.75
2023-03-02T06:35:58.522Z,96058.81
2023-03-02T06:37:00.857Z,96058.81
2023-03-02T06:38:06.533Z,96059.66
2023-03-02T06:39:15.768Z,96057.94
2023-03-02T06:40:21.869Z,96057.06
2023-03-02T06:41:24.778Z,96053.66
2023-03-02T06:42:32.817Z,96057.84
2023-03-02T06:43:38.400Z,96057.84
2023-03-02T06:44:40.678Z,96058.69
2023-03-02T06:45:45.595Z,96050.22
2023-03-02T06:46:47.693Z,96062.88
2023-03-02T06:47:54.127Z,96059.50
2023-03-02T06:48:56.456Z,96059.47
2023-03-02T06:50:01.300Z,96053.53
2023-03-02T06:51:04.044Z,96056.88
2023-03-02T06:52:11.303Z,96062.78
2023-03-02T06:53:18.596Z,96062.78
2023-03-02T06:54:23.117Z,96063.56
2023-03-02T06:55:29.456Z,96069.47
2023-03-02T06:56:31.949Z,96061.78
2023-03-02T06:57:39.991Z,96073.66
2023-03-02T06:58:42.357Z,96071.91
2023-03-02T06:59:47.857Z,96069.34
2023-03-02T07:00:50.123Z,96065.91
2023-03-02T07:01:55.046Z,96070.13
2023-03-02T07:02:57.776Z,96070.13
2023-03-02T07:04:02.604Z,96069.22
2023-03-02T07:05:06.181Z,96076.84
2023-03-02T07:06:13.195Z,96070.78
2023-03-02T07:07:15.338Z,96066.50
2023-03-02T07:08:20.302Z,96069.81
2023-03-02T07:09:22.765Z,96068.88
2023-03-02T07:10:27.997Z,96066.31
2023-03-02T07:11:30.585Z,96065.41
2023-03-02T07:12:35.803Z,96071.28
2023-03-02T07:13:41.402Z,96073.78
2023-03-02T07:14:46.497Z,96071.13
2023-03-02T07:15:51.700Z,96074.50
2023-03-02T07:16:53.766Z,96077.84
2023-03-02T07:17:58.614Z,96068.44
2023-03-02T07:19:03.940Z,96066.63
2023-03-02T07:20:10.034Z,96069.13
2023-03-02T07:21:15.394Z,96073.41
2023-03-02T07:22:17.538Z,96071.66
2023-03-02T07:23:22.241Z,96067.28
2023-03-02T07:24:24.499Z,96074.06
2023-03-02T07:25:29.428Z,96072.25
2023-03-02T07:26:32.015Z,96076.47
2023-03-02T07:27:36.829Z,96072.13
2023-03-02T07:28:43.138Z,96068.69
2023-03-02T07:29:48.041Z,96079.69
2023-03-02T07:30:50.309Z,96071.94
2023-03-02T07:31:58.147Z,96073.59
2023-03-02T07:33:03.131Z,96073.59
2023-03-02T07:34:05.556Z,96076.09
2023-03-02T07:35:11.159Z,96078.50
2023-03-02T07:36:13.723Z,96073.34
2023-03-02T07:37:18.545Z,96080.13
2023-03-02T07:38:20.646Z,96073.31
2023-03-02T07:39:25.524Z,96072.41
2023-03-02T07:40:27.591Z,96079.09
2023-03-02T07:41:33.467Z,96071.34
2023-03-02T07:42:35.936Z,96073.78
2023-03-02T07:43:43.488Z,96076.28
2023-03-02T07:44:45.828Z,96072.81
2023-03-02T07:45:51.180Z,96082.91
2023-03-02T07:46:53.601Z,96081.25
2023-03-02T07:47:58.309Z,96076.91
2023-03-02T07:49:03.656Z,96075.94
2023-03-02T07:50:10.077Z,96081.81
2023-03-02T07:51:15.290Z,96076.59
2023-03-02T07:52:20.474Z,96074.16
2023-03-02T07:53:22.734Z,96082.47
2023-03-02T07:54:30.561Z,96075.59
2023-03-02T07:55:35.882Z,96081.44
2023-03-02T07:56:40.675Z,96083.94
2023-03-02T07:57:45.909Z,96085.53
2023-03-02T07:58:50.886Z,96080.28
2023-03-02T07:59:55.732Z,96079.47
2023-03-02T08:00:57.995Z,96084.53
2023-03-02T08:02:02.753Z,96084.38
2023-03-02T08:03:07.846Z,96082.63
2023-03-02T08:04:13.953Z,96078.34
2023-03-02T08:05:17.035Z,96079.91
2023-03-02T08:06:21.867Z,96073.88
2023-03-02T08:07:23.940Z,96077.06
2023-03-02T08:08:30.739Z,96077.06
2023-03-02T08:09:32.901Z,96073.59
2023-03-02T08:10:38.207Z,96075.97
2023-03-02T08:11:43.359Z,96081.28
2023-03-02T08:12:50.650Z,96076.94
2023-03-02T08:13:55.536Z,96080.94
2023-03-02T08:15:00.343Z,96080.81
2023-03-02T08:16:03.157Z,96080.63
2023-03-02T08:17:08.860Z,96080.53
2023-03-02T08:18:10.877Z,96078.53
2023-03-02T08:19:15.675Z,96073.88
2023-03-02T08:20:17.838Z,96085.47
2023-03-02T08:21:25.528Z,96082.34
2023-03-02T08:22:30.644Z,96070.81
2023-03-02T08:23:35.366Z,96070.88
2023-03-02T08:24:37.859Z,96066.84
2023-03-02T08:25:45.847Z,96064.22
2023-03-02T08:26:47.849Z,96066.06
2023-03-02T08:27:52.654Z,96057.47
2023-03-02T08:29:00.651Z,96058.31
2023-03-02T08:30:02.918Z,96046.19
2023-03-02T08:31:09.926Z,96047.91
2023-03-02T08:32:12.318Z,96049.28
2023-03-02T08:33:18.845Z,96047.56
2023-03-02T08:34:23.713Z,96045.84
2023-03-02T08:35:28.681Z,96041.03
2023-03-02T08:36:34.376Z,96039.56
2023-03-02T08:37:36.872Z,96038.06
2023-03-02T08:38:42.331Z,96037.25
2023-03-02T08:39:44.375Z,96033.66
2023-03-02T08:40:49.051Z,96033.88
2023-03-02T08:41:51.284Z,96037.25
2023-03-02T08:42:57.683Z,96032.59
2023-03-02T08:44:09.340Z,96036.31
2023-03-02T08:45:15.144Z,96035.13
2023-03-02T08:46:18.812Z,96025.41
2023-03-02T08:47:23.756Z,96026.97
2023-03-02T08:48:27.040Z,96026.41
2023-03-02T08:49:32.084Z,96020.81
2023-03-02T08:50:34.418Z,96018.69
2023-03-02T08:51:40.480Z,96022.50
2023-03-02T08:52:42.584Z,96015.69
2023-03-02T08:53:50.731Z,96015.63
2023-03-02T08:54:55.530Z,96015.56
2023-03-02T08:55:57.897Z,96013.53
2023-03-02T08:57:02.803Z,96013.00
2023-03-02T08:58:08.251Z,96006.69
2023-03-02T08:59:16.970Z,96013.13
2023-03-02T09:00:20.771Z,96005.06
2023-03-02T09:01:28.899Z,96008.16
2023-03-02T09:02:30.884Z,96006.19
2023-03-02T09:03:38.231Z,96012.59
2023-03-02T09:04:43.376Z,96012.13
2023-03-02T09:05:48.092Z,96003.97
2023-03-02T09:06:53.386Z,96000.94
2023-03-02T09:07:55.537Z,96003.25
2023-03-02T09:09:00.749Z,96007.13
2023-03-02T09:10:06.330Z,96008.44
2023-03-02T09:11:09.073Z,95997.53
2023-03-02T09:12:14.332Z,95993.41
2023-03-02T09:13:16.454Z,95998.25
2023-03-02T09:14:25.031Z,95997.53
2023-03-02T09:15:27.824Z,95998.69
2023-03-02T09:16:33.404Z,95997.34
2023-03-02T09:17:36.972Z,95989.47
2023-03-02T09:18:42.640Z,95990.34
2023-03-02T09:19:47.768Z,95989.28
2023-03-02T09:20:50.786Z,95989.09
2023-03-02T09:21:55.983Z,95983.94
2023-03-02T09:22:58.327Z,95977.81
2023-03-02T09:24:05.795Z,95978.66
2023-03-02T09:25:11.201Z,95984.81
2023-03-02T09:26:16.077Z,95989.16
2023-03-02T09:27:21.220Z,95989.97
2023-03-02T09:28:27.074Z,95980.72
2023-03-02T09:29:34.973Z,95985.94
2023-03-02T09:30:37.052Z,95988.34
2023-03-02T09:31:41.995Z,95980.09
2023-03-02T09:32:44.432Z,95977.19
2023-03-02T09:33:49.609Z,95982.19
2023-03-02T09:34:51.928Z,95987.09
2023-03-02T09:35:59.078Z,95987.28
2023-03-02T09:37:04.141Z,95984.22
2023-03-02T09:38:13.073Z,95989.44
2023-03-02T09:39:19.534Z,95984.00
2023-03-02T09:40:27.955Z,95991.88
2023-03-02T09:42:03.641Z,95994.75
2023-03-02T09:43:29.904Z,96000.81
2023-03-02T09:44:53.735Z,95994.72
2023-03-02T09:46:05.999Z,95998.38
2023-03-02T09:47:33.406Z,95995.94
2023-03-02T09:48:44.037Z,95993.19
2023-03-02T09:50:01.201Z,96001.31
2023-03-02T09:51:21.950Z,95991.75
2023-03-02T09:52:34.387Z,95991.75
2023-03-02T09:53:46.312Z,96001.31
2023-03-02T09:54:51.236Z,95998.13
2023-03-02T09:55:59.146Z,95992.22
2023-03-02T09:57:04.498Z,95995.28
2023-03-02T09:58:11.743Z,95995.94
2023-03-02T09:59:25.982Z,96005.13
2023-03-02T10:00:32.949Z,96002.34
2023-03-02T10:01:43.171Z,95999.81
2023-03-02T10:02:51.549Z,95995.56
2023-03-02T10:04:00.748Z,96003.00
2023-03-02T10:05:11.296Z,95998.44
2023-03-02T10:06:16.302Z,95997.31
2023-03-02T10:07:29.534Z,96002.22
2023-03-02T10:08:39.363Z,95998.50
2023-03-02T10:09:45.523Z,96010.06
2023-03-02T10:10:53.503Z,96007.38
2023-03-02T10:12:16.803Z,96003.00
2023-03-02T10:13:23.582Z,96003.81
2023-03-02T10:14:35.496Z,96007.03
2023-03-02T10:15:49.547Z,96004.06
2023-03-02T10:17:03.019Z,95997.19
2023-03-02T10:18:21.403Z,95996.78
2023-03-02T10:19:32.552Z,96000.13
2023-03-02T10:20:44.593Z,96001.34
2023-03-02T10:21:52.289Z,96003.72
2023-03-02T10:23:05.481Z,95998.97
2023-03-02T10:24:24.010Z,95997.00
2023-03-02T10:25:40.538Z,96004.34
2023-03-02T10:26:48.387Z,96005.84
2023-03-02T10:28:00.900Z,95999.53
2023-03-02T10:29:17.495Z,96003.44
2023-03-02T10:30:27.829Z,96002.22
2023-03-02T10:31:36.884Z,96005.13
2023-03-02T10:32:52.980Z,96003.00
2023-03-02T10:33:58.582Z,96005.38
2023-03-02T10:35:17.580Z,95998.59
2023-03-02T10:36:27.496Z,95995.94
2023-03-02T10:37:33.886Z,95996.53
2023-03-02T10:38:38.203Z,95995.38
2023-03-02T10:39:43.180Z,95988.28
2023-03-02T10:40:53.345Z,95988.09
2023-03-02T10:42:03.453Z,95993.97
2023-03-02T10:43:06.567Z,95986.13
2023-03-02T10:44:18.580Z,95992.19
2023-03-02T10:45:26.077Z,95995.22
2023-03-02T10:46:47.829Z,96000.50
2023-03-02T10:48:00.305Z,96001.59
2023-03-02T10:49:05.583Z,95992.66
2023-03-02T10:50:23.374Z,95999.47
2023-03-02T10:51:31.195Z,95990.53
2023-03-02T10:52:37.260Z,95995.28
2023-03-02T10:53:39.339Z,95986.13
2023-03-02T10:54:44.587Z,95984.03
2023-03-02T10:55:48.896Z,95982.28
2023-03-02T10:56:58.637Z,95981.88
2023-03-02T10:58:07.782Z,95975.44
2023-03-02T10:59:30.223Z,95978.34
2023-03-02T11:00:38.536Z,95974.88
2023-03-02T11:01:46.656Z,95973.03
2023-03-02T11:02:53.061Z,95973.47
2023-03-02T11:03:56.595Z,95974.25
2023-03-02T11:05:14.246Z,95973.84
2023-03-02T11:06:25.629Z,95971.34
2023-03-02T11:07:29.871Z,95968.16
2023-03-02T11:08:35.163Z,95970.56
2023-03-02T11:09:37.215Z,95974.53
2023-03-02T11:10:44.566Z,95973.22
2023-03-02T11:11:54.055Z,95973.91
2023-03-02T11:12:59.361Z,95977.28
2023-03-02T11:14:19.398Z,95981.38
2023-03-02T11:15:25.923Z,95973.28
2023-03-02T11:16:35.591Z,95973.47
2023-03-02T11:17:45.275Z,95970.72
2023-03-02T11:18:56.456Z,95973.00
2023-03-02T11:20:01.628Z,95967.94
2023-03-02T11:21:09.175Z,95972.13
2023-03-02T11:22:22.492Z,95976.72
2023-03-02T11:23:36.747Z,95987.28
2023-03-02T11:24:43.057Z,95981.38
2023-03-02T11:25:53.860Z,95974.19
2023-03-02T11:27:03.658Z,95967.91
2023-03-02T11:28:20.300Z,95967.63
2023-03-02T11:29:34.107Z,95966.28
2023-03-02T11:30:42.229Z,95974.34
2023-03-02T11:31:50.750Z,95968.00
2023-03-02T11:33:01.059Z,95968.84
2023-03-02T11:34:18.240Z,95972.63
2023-03-02T11:35:32.873Z,95976.72
2023-03-02T11:36:45.281Z,95968.41
2023-03-02T11:37:54.829Z,95977.50
2023-03-02T11:39:00.073Z,95978.47
2023-03-02T11:40:20.709Z,95970.28
2023-03-02T11:41:31.664Z,95970.25
2023-03-02T11:42:39.201Z,95961.38
2023-03-02T11:43:41.489Z,95963.53
2023-03-02T11:44:46.830Z,95959.22
2023-03-02T11:46:00.790Z,95966.47
2023-03-02T11:47:06.265Z,95965.22
2023-03-02T11:48:22.525Z,95963.28
2023-03-02T11:49:34.544Z,95955.72
2023-03-02T11:50:48.095Z,95960.84
2023-03-02T11:51:59.534Z,95949.47
2023-03-02T11:53:10.089Z,95957.84
2023-03-02T11:54:34.174Z,95950.25
2023-03-02T11:55:45.953Z,95959.47
2023-03-02T11:56:48.410Z,95954.94
2023-03-02T11:57:56.670Z,95961.16
2023-03-02T11:59:02.364Z,95959.16
2023-03-02T12:00:15.961Z,95971.44
2023-03-02T12:01:24.649Z,95969.69
2023-03-02T12:02:31.215Z,95956.06
2023-03-02T12:03:41.684Z,95956.94
2023-03-02T12:04:46.518Z,95959.91
2023-03-02T12:06:01.984Z,95959.41
2023-03-02T12:07:23.408Z,95959.25
2023-03-02T12:08:40.665Z,95957.59
2023-03-02T12:09:45.925Z,95954.44
2023-03-02T12:11:03.655Z,95946.53
2023-03-02T12:12:41.206Z,95952.72
2023-03-02T12:14:06.392Z,95956.56
2023-03-02T12:15:37.318Z,95958.22
2023-03-02T12:16:49.909Z,95952.97
2023-03-02T12:17:52.683Z,95960.44
2023-03-02T12:19:07.901Z,95962.34
2023-03-02T12:20:30.250Z,95957.44
2023-03-02T12:21:43.531Z,95958.19
2023-03-02T12:22:45.716Z,95954.97
2023-03-02T12:24:04.368Z,95947.78
2023-03-02T12:26:07.387Z,95939.88
2023-03-02T12:27:27.682Z,95954.88
2023-03-02T12:28:36.062Z,95950.50
2023-03-02T12:29:41.097Z,95949.03
2023-03-02T12:30:46.099Z,95944.50
2023-03-02T12:31:53.796Z,95956.34
2023-03-02T12:33:03.055Z,95948.47
2023-03-02T12:34:35.205Z,95940.97
2023-03-02T12:35:41.456Z,95951.94
2023-03-02T12:36:47.482Z,95948.03
2023-03-02T12:37:57.501Z,95945.59
2023-03-02T12:39:20.946Z,95939.22
2023-03-02T12:40:40.531Z,95940.34
2023-03-02T12:42:10.813Z,95943.69
2023-03-02T12:43:31.236Z,95935.56
2023-03-02T12:44:49.368Z,95937.28
2023-03-02T12:46:16.440Z,95941.88
2023-03-02T12:47:28.233Z,95939.44
2023-03-02T12:48:37.980Z,95941.53
2023-03-02T12:49:54.969Z,95944.06
2023-03-02T12:51:07.083Z,95942.69
2023-03-02T12:52:24.956Z,95938.44
2023-03-02T12:53:28.884Z,95935.81
2023-03-02T12:54:35.494Z,95933.94
2023-03-02T12:55:38.955Z,95938.22
2023-03-02T12:56:44.844Z,95935.69
2023-03-02T12:57:54.058Z,95926.88
2023-03-02T12:59:02.968Z,95925.91
2023-03-02T13:00:18.781Z,95918.03
2023-03-02T13:01:23.662Z,95924.44
2023-03-02T13:02:31.000Z,95916.13
2023-03-02T13:03:36.523Z,95924.06
2023-03-02T13:04:38.865Z,95916.97
2023-03-02T13:05:47.974Z,95917.78
2023-03-02T13:06:50.376Z,95923.84
2023-03-02T13:08:01.084Z,95925.25
2023-03-02T13:09:03.727Z,95913.47
2023-03-02T13:10:20.206Z,95916.38
2023-03-02T13:11:27.033Z,95909.06
2023-03-02T13:12:32.872Z,95916.47
2023-03-02T13:13:42.217Z,95915.66
2023-03-02T13:14:50.532Z,95908.72
2023-03-02T13:16:00.921Z,95900.47
2023-03-02T13:17:03.911Z,95910.00
2023-03-02T13:18:11.424Z,95913.38
2023-03-02T13:19:17.464Z,95910.31
2023-03-02T13:20:24.876Z,95906.94
2023-03-02T13:21:38.509Z,95907.47
2023-03-02T13:22:43.705Z,95907.31
2023-03-02T13:23:50.825Z,95908.47
2023-03-02T13:25:02.235Z,95899.09
2023-03-02T13:26:08.809Z,95887.81
2023-03-02T13:27:17.330Z,95896.81
2023-03-02T13:28:32.824Z,95900.56
2023-03-02T13:29:35.679Z,95900.25
2023-03-02T13:30:47.996Z,95905.09
2023-03-02T13:31:53.946Z,95902.19
2023-03-02T13:33:01.993Z,95902.44
2023-03-02T13:34:08.138Z,95896.88
2023-03-02T13:35:25.558Z,95899.19
2023-03-02T13:36:39.046Z,95891.97
2023-03-02T13:37:47.003Z,95899.41
2023-03-02T13:38:51.264Z,95893.34
2023-03-02T13:40:02.334Z,95892.53
2023-03-02T13:41:10.025Z,95889.88
2023-03-02T13:42:26.399Z,95891.53
2023-03-02T13:43:40.062Z,95899.16
2023-03-02T13:44:42.391Z,95893.81
2023-03-02T13:45:55.404Z,95895.75
2023-03-02T13:48:35.445Z,95878.75
2023-03-02T13:49:40.593Z,95885.41
2023-03-02T13:51:01.068Z,95878.81
2023-03-02T13:52:14.251Z,95884.94
2023-03-02T13:53:20.197Z,95876.34
2023-03-02T13:54:30.644Z,95879.97
2023-03-02T13:55:37.265Z,95884.91
2023-03-02T13:56:41.693Z,95888.06
2023-03-02T13:57:48.393Z,95882.22
2023-03-02T13:58:50.643Z,95892.66
2023-03-02T13:59:56.329Z,95879.41
2023-03-02T14:01:01.163Z,95886.34
2023-03-02T14:02:30.711Z,95874.97
2023-03-02T14:03:33.259Z,95878.72
2023-03-02T14:04:40.017Z,95887.38
2023-03-02T14:05:45.243Z,95881.84
2023-03-02T14:06:50.834Z,95883.25
2023-03-02T14:07:56.007Z,95884.50
2023-03-02T14:09:00.982Z,95880.66
2023-03-02T14:10:05.328Z,95882.50
2023-03-02T14:11:11.153Z,95870.25
2023-03-02T14:12:23.331Z,95869.09
2023-03-02T14:13:32.273Z,95867.78
2023-03-02T14:14:39.774Z,95864.84
2023-03-02T14:15:47.185Z,95870.00
2023-03-02T14:16:52.997Z,95866.66
2023-03-02T14:17:57.890Z,95860.38
2023-03-02T14:19:09.147Z,95860.84
2023-03-02T14:20:19.406Z,95867.88
2023-03-02T14:21:27.578Z,95864.69
2023-03-02T14:22:32.540Z,95863.47
2023-03-02T14:23:43.722Z,95864.16
2023-03-02T14:24:46.969Z,95878.06
2023-03-02T14:25:54.830Z,95868.03
2023-03-02T14:26:57.027Z,95879.53
2023-03-02T14:28:02.456Z,95890.34
2023-03-02T14:29:17.822Z,95893.34
2023-03-02T14:30:24.152Z,95894.16
2023-03-02T14:31:29.243Z,95889.97
2023-03-02T14:32:31.455Z,95895.63
2023-03-02T14:33:37.039Z,95894.81
2023-03-02T14:34:39.997Z,95892.84
2023-03-02T14:35:46.121Z,95899.69
2023-03-02T14:36:53.848Z,95905.44
2023-03-02T14:37:59.097Z,95906.00
2023-03-02T14:39:15.037Z,95909.75
2023-03-02T14:40:28.980Z,95914.72
2023-03-02T14:41:34.396Z,95912.31
2023-03-02T14:42:43.295Z,95911.28
2023-03-02T14:43:45.536Z,95908.13
2023-03-02T14:44:53.674Z,95917.44
2023-03-02T14:45:58.668Z,95912.75